Terminal Aerodrome Forecast
Issued by NWS

Home | Current Version | Previous Version | Text Only | Print | Product List | Glossary On
Versions: 1 2 3 4 5 6 7 8 9 10 11 12
000
FTUS45 KVEF 010500
TAFBIH
TAF
KBIH 010539Z 0106/0206 15023G30KT P6SM SCT050 BKN100
     FM010800 15010KT P6SM VCSH SCT050 BKN100
      TEMPO 0110/0113 VRB06KT P6SM -RA FEW035 BKN050 OVC100
     FM011400 35010KT P6SM VCSH SCT050 BKN100
     FM011700 01011KT P6SM SCT080 BKN150=

USA.gov is the U.S. government's official web portal to all federal, state and local government web resources and services.